Grosse Pointe Park, Michigan
Current Conditions -  °F | °C
As of 11:53 AM on Sunday 23 Nov 2014 (Local Time) from KDET Reporting Station
Overcast Overcast  
Wind Chill: 46°   Ceiling: 7000
Heat Index: 49°   Visibility: 10mi
Dew Point: 43°   Wind: 7mph
Humidity: 80%   Direction: 180°S
Pressure: 29.89"   Gusts: NA
Location:  42.4104°N, 82.941°W
Report Text: KDET 231653Z 18006KT 10SM FEW029 BKN070 OVC090 09/06 A2989 RMK AO2 SLP123 T00940061
Loading
Personal Weather Stations






























Interactive Weather Map New forecast layout! Learn more

10-Day Weather Forecast

Advertisements
Track Severe Weather on mobile